Pertusola — IBER — position and weather

sailwx.info

Track history (hours):
 
Tides and Currents Weather Stations Pressure Air Temp Water Temp Dewpoint Dewpoint Depression Visibility Wind Speed Wind Dir Waves Ship Positions

Pertusola

Last reported at 2016-Feb-05 03:08 UTC. Time now 2016-Feb-07 21:56 UTC.
Position N 41°59' W 009°58'.

Length 145 m; draft 9.2 m.

Type: Ship (hazmat cat A). MMSI: 247399000.

Date/timePositionNaut miles runAvg speedWind from/ knotsBaromVisibWave heightAir tempDewpointWater temp
2016-Feb-05 03:08N 41°59' W 009°58'813.3
2016-Feb-05 02:32N 41°51' W 009°58'1211.8
2016-Feb-05 01:33N 41°40' W 009°58'1613.3
2016-Feb-05 00:20N 41°24' W 009°58'1113.2
2016-Feb-04 23:32N 41°13' W 009°58'1312.4
2016-Feb-04 22:29N 41°00' W 009°58'1212.2
2016-Feb-04 21:32N 40°49' W 009°58'1212.1
2016-Feb-04 20:31N 40°36' W 009°58'1313.0
2016-Feb-04 19:32N 40°23' W 009°58'1111.4
2016-Feb-04 18:33N 40°12' W 009°58'1312.5
2016-Feb-04 17:32N 39°59' W 009°58'1312.7
2016-Feb-04 16:32N 39°47' W 009°58'1312.8
2016-Feb-04 15:33N 39°34' W 009°58'1211.7
2016-Feb-04 14:32N 39°22' W 009°58'1212.5
2016-Feb-04 13:33N 39°10' W 009°58'1212.3
2016-Feb-04 12:33N 38°58' W 009°58'1212.3
2016-Feb-04 11:33N 38°45' W 009°58'1212.0
2016-Feb-04 10:33N 38°34' W 009°56'1711.8
2016-Feb-04 09:08N 38°17' W 009°51'711.8
2016-Feb-04 08:33N 38°10' W 009°49'1211.8
2016-Feb-04 07:33N 37°59' W 009°45'1211.9
2016-Feb-04 06:32N 37°47' W 009°42'1312.8
2016-Feb-04 05:32N 37°35' W 009°38'1211.4
2016-Feb-04 04:29N 37°23' W 009°35'1111.3
2016-Feb-04 03:32N 37°13' W 009°32'1211.9
2016-Feb-04 02:32N 37°01' W 009°28'1212.0
2016-Feb-04 01:32N 36°50' W 009°24'1211.9
2016-Feb-04 00:32N 36°41' W 009°14'1211.8
2016-Feb-03 23:29N 36°37' W 008°59'1111.7
2016-Feb-03 22:32N 36°35' W 008°46'1312.8
2016-Feb-03 21:32N 36°32' W 008°30'1312.7
2016-Feb-03 20:32N 36°29' W 008°15'13412.2
2016-Feb-03 09:33N 35°58' W 005°34'1110.6
2016-Feb-03 08:33N 36°02' W 005°21'5 5.2
2016-Feb-03 07:33N 36°06' W 005°17'5 5.1
2016-Feb-03 06:33N 36°08' W 005°11'21310.5
2016-Feb-02 10:19N 36°40' W 000°49'6 8.2
2016-Feb-02 09:33N 36°45' W 000°44'4411.1
2016-Feb-02 05:33N 36°41' E 000°11'1312.7
2016-Feb-02 04:30N 36°43' E 000°28'1212.8
2016-Feb-02 03:33N 36°45' E 000°43'1412.4
2016-Feb-02 02:23N 36°47' E 001°00'1012.1
2016-Feb-02 01:33N 36°49' E 001°13'1212.1
2016-Feb-02 00:33N 36°49' E 001°28'1312.7
2016-Feb-01 23:33N 36°51' E 001°43'1313.0
2016-Feb-01 22:32N 36°53' E 001°60'1612.9
2016-Feb-01 21:16N 36°56' E 002°20'1513.0
2016-Feb-01 20:09N 36°58' E 002°38'2213.4
2016-Feb-01 18:31N 36°59' E 003°05'1313.7
2016-Feb-01 17:33N 37°01' E 003°22'  
2016-Jan-29 11:32N 36°24' W 002°02'1716.4
2016-Jan-29 10:28N 36°22' W 002°23'1415.3
2016-Jan-29 09:33N 36°21' W 002°41'12315.2
2016-Jan-29 01:28N 36°03' W 005°12'1516.0
2016-Jan-29 00:33N 35°57' W 005°28'13614.8
2016-Jan-28 15:22N 36°16' W 008°15'1415.0
2016-Jan-28 14:28N 36°19' W 008°32'1414.3
2016-Jan-28 13:31N 36°22' W 008°48'1515.1
2016-Jan-28 12:31N 36°26' W 009°06'1514.9
2016-Jan-28 11:31N 36°32' W 009°23'1515.3
2016-Jan-28 10:30N 36°43' W 009°37'1814.4
2016-Jan-28 09:16N 37°00' W 009°43'1215.8
2016-Jan-28 08:31N 37°12' W 009°46'1514.1
2016-Jan-28 07:28N 37°26' W 009°50'1514.6
2016-Jan-28 06:28N 37°40' W 009°54'1515.0
2016-Jan-28 05:28N 37°55' W 009°58'1414.9
2016-Jan-28 04:33N 38°08' W 010°03'1413.4
2016-Jan-28 03:30N 38°22' W 010°07'1414.5
2016-Jan-28 02:32N 38°36' W 010°11'1414.3
2016-Jan-28 01:33N 38°50' W 010°13'1615.2
2016-Jan-28 00:30N 39°06' W 010°12'1313.9
2016-Jan-27 23:33N 39°19' W 010°12'1514.8
2016-Jan-27 22:33N 39°34' W 010°12'2914.6
2016-Jan-27 20:33N 40°03' W 010°13'1514.6
2016-Jan-27 19:30N 40°18' W 010°13'4214.2
2016-Jan-27 16:33N 41°00' W 010°14'1514.5
2016-Jan-27 15:30N 41°15' W 010°13'1413.9
2016-Jan-27 14:30N 41°29' W 010°12'1313.3
2016-Jan-27 13:33N 41°42' W 010°11'1414.0
2016-Jan-27 12:33N 41°56' W 010°11'  
Track history (hours):
 
Tides and Currents Weather Stations Pressure Air Temp Water Temp Dewpoint Dewpoint Depression Visibility Wind Speed Wind Dir Waves Ship Positions

Pertusola

Last reported at 2016-Feb-05 03:08 UTC. Time now 2016-Feb-07 21:56 UTC.
Position N 41°59' W 009°58'.

Length 145 m; draft 9.2 m.

Type: Ship (hazmat cat A). MMSI: 247399000.

Date/timePositionNaut miles runAvg speedWind from/ knotsBaromVisibWave heightAir tempDewpointWater temp
2016-Feb-05 03:08N 41°59' W 009°58'813.3
2016-Feb-05 02:32N 41°51' W 009°58'1211.8
2016-Feb-05 01:33N 41°40' W 009°58'1613.3
2016-Feb-05 00:20N 41°24' W 009°58'1113.2
2016-Feb-04 23:32N 41°13' W 009°58'1312.4
2016-Feb-04 22:29N 41°00' W 009°58'1212.2
2016-Feb-04 21:32N 40°49' W 009°58'1212.1
2016-Feb-04 20:31N 40°36' W 009°58'1313.0
2016-Feb-04 19:32N 40°23' W 009°58'1111.4
2016-Feb-04 18:33N 40°12' W 009°58'1312.5
2016-Feb-04 17:32N 39°59' W 009°58'1312.7
2016-Feb-04 16:32N 39°47' W 009°58'1312.8
2016-Feb-04 15:33N 39°34' W 009°58'1211.7
2016-Feb-04 14:32N 39°22' W 009°58'1212.5
2016-Feb-04 13:33N 39°10' W 009°58'1212.3
2016-Feb-04 12:33N 38°58' W 009°58'1212.3
2016-Feb-04 11:33N 38°45' W 009°58'1212.0
2016-Feb-04 10:33N 38°34' W 009°56'1711.8
2016-Feb-04 09:08N 38°17' W 009°51'711.8
2016-Feb-04 08:33N 38°10' W 009°49'1211.8
2016-Feb-04 07:33N 37°59' W 009°45'1211.9
2016-Feb-04 06:32N 37°47' W 009°42'1312.8
2016-Feb-04 05:32N 37°35' W 009°38'1211.4
2016-Feb-04 04:29N 37°23' W 009°35'1111.3
2016-Feb-04 03:32N 37°13' W 009°32'1211.9
2016-Feb-04 02:32N 37°01' W 009°28'1212.0
2016-Feb-04 01:32N 36°50' W 009°24'1211.9
2016-Feb-04 00:32N 36°41' W 009°14'1211.8
2016-Feb-03 23:29N 36°37' W 008°59'1111.7
2016-Feb-03 22:32N 36°35' W 008°46'1312.8
2016-Feb-03 21:32N 36°32' W 008°30'1312.7
2016-Feb-03 20:32N 36°29' W 008°15'13412.2
2016-Feb-03 09:33N 35°58' W 005°34'1110.6
2016-Feb-03 08:33N 36°02' W 005°21'5 5.2
2016-Feb-03 07:33N 36°06' W 005°17'5 5.1
2016-Feb-03 06:33N 36°08' W 005°11'21310.5
2016-Feb-02 10:19N 36°40' W 000°49'6 8.2
2016-Feb-02 09:33N 36°45' W 000°44'4411.1
2016-Feb-02 05:33N 36°41' E 000°11'1312.7
2016-Feb-02 04:30N 36°43' E 000°28'1212.8
2016-Feb-02 03:33N 36°45' E 000°43'1412.4
2016-Feb-02 02:23N 36°47' E 001°00'1012.1
2016-Feb-02 01:33N 36°49' E 001°13'1212.1
2016-Feb-02 00:33N 36°49' E 001°28'1312.7
2016-Feb-01 23:33N 36°51' E 001°43'1313.0
2016-Feb-01 22:32N 36°53' E 001°60'1612.9
2016-Feb-01 21:16N 36°56' E 002°20'1513.0
2016-Feb-01 20:09N 36°58' E 002°38'2213.4
2016-Feb-01 18:31N 36°59' E 003°05'1313.7
2016-Feb-01 17:33N 37°01' E 003°22'  
2016-Jan-29 11:32N 36°24' W 002°02'1716.4
2016-Jan-29 10:28N 36°22' W 002°23'1415.3
2016-Jan-29 09:33N 36°21' W 002°41'12315.2
2016-Jan-29 01:28N 36°03' W 005°12'1516.0
2016-Jan-29 00:33N 35°57' W 005°28'13614.8
2016-Jan-28 15:22N 36°16' W 008°15'1415.0
2016-Jan-28 14:28N 36°19' W 008°32'1414.3
2016-Jan-28 13:31N 36°22' W 008°48'1515.1
2016-Jan-28 12:31N 36°26' W 009°06'1514.9
2016-Jan-28 11:31N 36°32' W 009°23'1515.3
2016-Jan-28 10:30N 36°43' W 009°37'1814.4
2016-Jan-28 09:16N 37°00' W 009°43'1215.8
2016-Jan-28 08:31N 37°12' W 009°46'1514.1
2016-Jan-28 07:28N 37°26' W 009°50'1514.6
2016-Jan-28 06:28N 37°40' W 009°54'1515.0
2016-Jan-28 05:28N 37°55' W 009°58'1414.9
2016-Jan-28 04:33N 38°08' W 010°03'1413.4
2016-Jan-28 03:30N 38°22' W 010°07'1414.5
2016-Jan-28 02:32N 38°36' W 010°11'1414.3
2016-Jan-28 01:33N 38°50' W 010°13'1615.2
2016-Jan-28 00:30N 39°06' W 010°12'1313.9
2016-Jan-27 23:33N 39°19' W 010°12'1514.8
2016-Jan-27 22:33N 39°34' W 010°12'2914.6
2016-Jan-27 20:33N 40°03' W 010°13'1514.6
2016-Jan-27 19:30N 40°18' W 010°13'4214.2
2016-Jan-27 16:33N 41°00' W 010°14'1514.5
2016-Jan-27 15:30N 41°15' W 010°13'1413.9
2016-Jan-27 14:30N 41°29' W 010°12'1313.3
2016-Jan-27 13:33N 41°42' W 010°11'1414.0
2016-Jan-27 12:33N 41°56' W 010°11'  

Dump ship's entire track history